sensor_id;sensor_type;location;lat;lon;timestamp;P1;durP1;ratioP1;P2;durP2;ratioP2
63434;SDS011;68814;50.872;5.306;2024-01-16T00:08:08;17.45;;;4.65;;
63434;SDS011;68814;50.872;5.306;2024-01-16T00:10:34;11.18;;;4.53;;
63434;SDS011;68814;50.872;5.306;2024-01-16T00:20:41;18.00;;;5.13;;
63434;SDS011;68814;50.872;5.306;2024-01-16T00:28:17;19.02;;;4.82;;
63434;SDS011;68814;50.872;5.306;2024-01-16T00:30:54;21.02;;;5.50;;
63434;SDS011;68814;50.872;5.306;2024-01-16T00:33:20;14.90;;;5.55;;
63434;SDS011;68814;50.872;5.306;2024-01-16T00:35:49;9.48;;;4.32;;
63434;SDS011;68814;50.872;5.306;2024-01-16T00:40:50;20.95;;;6.15;;
63434;SDS011;68814;50.872;5.306;2024-01-16T01:09:04;17.38;;;4.93;;
63434;SDS011;68814;50.872;5.306;2024-01-16T01:16:41;16.70;;;5.07;;
63434;SDS011;68814;50.872;5.306;2024-01-16T01:21:42;15.05;;;4.75;;
63434;SDS011;68814;50.872;5.306;2024-01-16T01:29:26;19.38;;;5.30;;
63434;SDS011;68814;50.872;5.306;2024-01-16T01:52:32;15.02;;;4.60;;
63434;SDS011;68814;50.872;5.306;2024-01-16T02:01:32;19.02;;;5.07;;
63434;SDS011;68814;50.872;5.306;2024-01-16T02:03:59;14.07;;;3.90;;
63434;SDS011;68814;50.872;5.306;2024-01-16T02:06:26;13.13;;;4.43;;
63434;SDS011;68814;50.872;5.306;2024-01-16T02:08:52;10.18;;;3.40;;
63434;SDS011;68814;50.872;5.306;2024-01-16T02:11:19;17.20;;;4.25;;
63434;SDS011;68814;50.872;5.306;2024-01-16T02:13:47;12.82;;;3.60;;
63434;SDS011;68814;50.872;5.306;2024-01-16T02:16:22;18.10;;;4.63;;
63434;SDS011;68814;50.872;5.306;2024-01-16T02:18:50;15.82;;;3.90;;
63434;SDS011;68814;50.872;5.306;2024-01-16T02:21:18;15.93;;;3.67;;
63434;SDS011;68814;50.872;5.306;2024-01-16T02:23:47;19.67;;;4.57;;
63434;SDS011;68814;50.872;5.306;2024-01-16T02:26:14;16.25;;;4.20;;
63434;SDS011;68814;50.872;5.306;2024-01-16T02:28:41;30.05;;;4.32;;
63434;SDS011;68814;50.872;5.306;2024-01-16T02:31:08;10.10;;;3.28;;
63434;SDS011;68814;50.872;5.306;2024-01-16T02:33:34;16.13;;;4.05;;
63434;SDS011;68814;50.872;5.306;2024-01-16T02:35:59;16.52;;;3.28;;
63434;SDS011;68814;50.872;5.306;2024-01-16T02:38:26;14.68;;;3.47;;
63434;SDS011;68814;50.872;5.306;2024-01-16T02:40:51;18.08;;;3.80;;
63434;SDS011;68814;50.872;5.306;2024-01-16T02:43:18;15.02;;;3.60;;
63434;SDS011;68814;50.872;5.306;2024-01-16T02:45:43;16.52;;;3.95;;
63434;SDS011;68814;50.872;5.306;2024-01-16T02:48:10;12.13;;;4.40;;
63434;SDS011;68814;50.872;5.306;2024-01-16T02:50:36;7.65;;;2.97;;
63434;SDS011;68814;50.872;5.306;2024-01-16T02:53:03;11.38;;;3.95;;
63434;SDS011;68814;50.872;5.306;2024-01-16T02:55:29;13.98;;;3.13;;
63434;SDS011;68814;50.872;5.306;2024-01-16T02:57:54;10.77;;;3.60;;
63434;SDS011;68814;50.872;5.306;2024-01-16T03:00:20;11.82;;;3.20;;
63434;SDS011;68814;50.872;5.306;2024-01-16T03:02:47;13.32;;;3.50;;
63434;SDS011;68814;50.872;5.306;2024-01-16T03:05:14;16.40;;;3.30;;
63434;SDS011;68814;50.872;5.306;2024-01-16T03:07:40;11.90;;;2.97;;
63434;SDS011;68814;50.872;5.306;2024-01-16T03:10:07;17.02;;;3.78;;
63434;SDS011;68814;50.872;5.306;2024-01-16T03:12:33;14.15;;;3.28;;
63434;SDS011;68814;50.872;5.306;2024-01-16T03:14:59;15.90;;;3.97;;
63434;SDS011;68814;50.872;5.306;2024-01-16T03:17:24;16.85;;;2.92;;
63434;SDS011;68814;50.872;5.306;2024-01-16T03:19:50;15.00;;;3.47;;
63434;SDS011;68814;50.872;5.306;2024-01-16T03:22:16;15.25;;;3.55;;
63434;SDS011;68814;50.872;5.306;2024-01-16T03:24:42;12.55;;;3.13;;
63434;SDS011;68814;50.872;5.306;2024-01-16T03:27:07;8.82;;;3.00;;
63434;SDS011;68814;50.872;5.306;2024-01-16T03:29:34;17.92;;;4.32;;
63434;SDS011;68814;50.872;5.306;2024-01-16T03:32:00;11.82;;;2.63;;
63434;SDS011;68814;50.872;5.306;2024-01-16T03:34:26;9.13;;;3.22;;
63434;SDS011;68814;50.872;5.306;2024-01-16T03:36:52;10.15;;;2.70;;
63434;SDS011;68814;50.872;5.306;2024-01-16T03:39:17;9.02;;;3.03;;
63434;SDS011;68814;50.872;5.306;2024-01-16T03:41:43;11.02;;;3.35;;
63434;SDS011;68814;50.872;5.306;2024-01-16T03:44:09;9.13;;;3.10;;
63434;SDS011;68814;50.872;5.306;2024-01-16T03:46:34;9.90;;;3.03;;
63434;SDS011;68814;50.872;5.306;2024-01-16T03:49:00;14.65;;;3.17;;
63434;SDS011;68814;50.872;5.306;2024-01-16T03:51:26;10.57;;;2.90;;
63434;SDS011;68814;50.872;5.306;2024-01-16T03:53:52;11.25;;;3.17;;
63434;SDS011;68814;50.872;5.306;2024-01-16T03:56:18;14.45;;;2.80;;
63434;SDS011;68814;50.872;5.306;2024-01-16T03:58:43;9.75;;;2.65;;
63434;SDS011;68814;50.872;5.306;2024-01-16T04:01:10;9.40;;;3.42;;
63434;SDS011;68814;50.872;5.306;2024-01-16T04:03:35;10.13;;;3.53;;
63434;SDS011;68814;50.872;5.306;2024-01-16T04:06:03;13.40;;;2.97;;
63434;SDS011;68814;50.872;5.306;2024-01-16T04:08:29;8.45;;;2.72;;
63434;SDS011;68814;50.872;5.306;2024-01-16T04:10:55;8.80;;;3.03;;
63434;SDS011;68814;50.872;5.306;2024-01-16T04:13:21;15.60;;;3.80;;
63434;SDS011;68814;50.872;5.306;2024-01-16T04:15:47;8.85;;;3.50;;
63434;SDS011;68814;50.872;5.306;2024-01-16T04:18:13;14.02;;;3.63;;
63434;SDS011;68814;50.872;5.306;2024-01-16T04:20:39;8.98;;;3.45;;
63434;SDS011;68814;50.872;5.306;2024-01-16T04:23:05;14.25;;;3.28;;
63434;SDS011;68814;50.872;5.306;2024-01-16T04:25:31;12.48;;;3.83;;
63434;SDS011;68814;50.872;5.306;2024-01-16T04:27:58;18.05;;;4.20;;
63434;SDS011;68814;50.872;5.306;2024-01-16T04:30:23;14.57;;;4.45;;
63434;SDS011;68814;50.872;5.306;2024-01-16T04:32:51;15.27;;;3.95;;
63434;SDS011;68814;50.872;5.306;2024-01-16T04:35:16;16.30;;;3.58;;
63434;SDS011;68814;50.872;5.306;2024-01-16T04:37:42;9.98;;;3.95;;
63434;SDS011;68814;50.872;5.306;2024-01-16T04:40:08;17.00;;;3.78;;
63434;SDS011;68814;50.872;5.306;2024-01-16T04:42:34;13.05;;;3.95;;
63434;SDS011;68814;50.872;5.306;2024-01-16T04:45:00;16.25;;;4.57;;
63434;SDS011;68814;50.872;5.306;2024-01-16T04:47:26;15.02;;;5.20;;
63434;SDS011;68814;50.872;5.306;2024-01-16T04:49:52;23.60;;;4.40;;
63434;SDS011;68814;50.872;5.306;2024-01-16T04:52:18;13.13;;;4.80;;
63434;SDS011;68814;50.872;5.306;2024-01-16T04:54:44;11.25;;;4.88;;
63434;SDS011;68814;50.872;5.306;2024-01-16T04:57:10;15.02;;;5.07;;
63434;SDS011;68814;50.872;5.306;2024-01-16T04:59:37;16.42;;;4.47;;
63434;SDS011;68814;50.872;5.306;2024-01-16T05:02:03;18.58;;;5.75;;
63434;SDS011;68814;50.872;5.306;2024-01-16T05:04:28;13.73;;;5.03;;
63434;SDS011;68814;50.872;5.306;2024-01-16T05:06:54;16.65;;;4.65;;
63434;SDS011;68814;50.872;5.306;2024-01-16T05:09:20;19.33;;;4.88;;
63434;SDS011;68814;50.872;5.306;2024-01-16T05:11:46;12.88;;;3.95;;
63434;SDS011;68814;50.872;5.306;2024-01-16T05:14:13;20.90;;;5.13;;
63434;SDS011;68814;50.872;5.306;2024-01-16T05:16:39;11.73;;;4.10;;
63434;SDS011;68814;50.872;5.306;2024-01-16T05:19:05;19.55;;;4.60;;
63434;SDS011;68814;50.872;5.306;2024-01-16T05:21:31;14.25;;;4.57;;
63434;SDS011;68814;50.872;5.306;2024-01-16T05:23:56;15.43;;;4.72;;
63434;SDS011;68814;50.872;5.306;2024-01-16T05:26:22;17.00;;;4.70;;
63434;SDS011;68814;50.872;5.306;2024-01-16T05:28:48;19.77;;;4.70;;
63434;SDS011;68814;50.872;5.306;2024-01-16T05:31:14;17.05;;;4.57;;
63434;SDS011;68814;50.872;5.306;2024-01-16T05:33:40;11.77;;;4.90;;
63434;SDS011;68814;50.872;5.306;2024-01-16T05:36:06;17.13;;;4.47;;
63434;SDS011;68814;50.872;5.306;2024-01-16T05:38:32;18.52;;;6.15;;
63434;SDS011;68814;50.872;5.306;2024-01-16T05:40:59;16.58;;;4.65;;
63434;SDS011;68814;50.872;5.306;2024-01-16T05:43:24;14.13;;;5.40;;
63434;SDS011;68814;50.872;5.306;2024-01-16T05:45:50;13.85;;;4.80;;
63434;SDS011;68814;50.872;5.306;2024-01-16T05:48:17;17.55;;;4.53;;
63434;SDS011;68814;50.872;5.306;2024-01-16T05:50:44;15.05;;;4.47;;
63434;SDS011;68814;50.872;5.306;2024-01-16T05:53:09;16.60;;;4.55;;
63434;SDS011;68814;50.872;5.306;2024-01-16T05:55:35;16.17;;;5.03;;
63434;SDS011;68814;50.872;5.306;2024-01-16T05:58:02;12.63;;;4.78;;
63434;SDS011;68814;50.872;5.306;2024-01-16T06:00:28;21.10;;;5.68;;
63434;SDS011;68814;50.872;5.306;2024-01-16T06:02:53;16.73;;;4.75;;
63434;SDS011;68814;50.872;5.306;2024-01-16T06:05:19;15.27;;;4.68;;
63434;SDS011;68814;50.872;5.306;2024-01-16T06:07:45;15.32;;;4.28;;
63434;SDS011;68814;50.872;5.306;2024-01-16T06:10:14;13.68;;;4.35;;
63434;SDS011;68814;50.872;5.306;2024-01-16T06:12:39;17.77;;;5.10;;
63434;SDS011;68814;50.872;5.306;2024-01-16T06:15:05;15.85;;;5.15;;
63434;SDS011;68814;50.872;5.306;2024-01-16T06:17:32;19.55;;;4.82;;
63434;SDS011;68814;50.872;5.306;2024-01-16T06:19:57;16.65;;;5.13;;
63434;SDS011;68814;50.872;5.306;2024-01-16T06:22:23;14.77;;;4.85;;
63434;SDS011;68814;50.872;5.306;2024-01-16T06:24:49;23.50;;;5.95;;
63434;SDS011;68814;50.872;5.306;2024-01-16T06:27:15;19.20;;;5.53;;
63434;SDS011;68814;50.872;5.306;2024-01-16T06:29:47;18.17;;;5.15;;
63434;SDS011;68814;50.872;5.306;2024-01-16T06:32:13;18.08;;;4.55;;
63434;SDS011;68814;50.872;5.306;2024-01-16T06:34:39;11.57;;;4.47;;
63434;SDS011;68814;50.872;5.306;2024-01-16T06:37:05;20.90;;;6.20;;
63434;SDS011;68814;50.872;5.306;2024-01-16T06:39:31;25.60;;;6.47;;
63434;SDS011;68814;50.872;5.306;2024-01-16T06:41:58;18.70;;;6.40;;
63434;SDS011;68814;50.872;5.306;2024-01-16T06:44:25;26.52;;;5.97;;
63434;SDS011;68814;50.872;5.306;2024-01-16T06:46:51;18.55;;;5.82;;
63434;SDS011;68814;50.872;5.306;2024-01-16T06:49:17;18.60;;;5.95;;
63434;SDS011;68814;50.872;5.306;2024-01-16T06:51:43;23.83;;;6.03;;
63434;SDS011;68814;50.872;5.306;2024-01-16T06:54:08;21.90;;;6.18;;
63434;SDS011;68814;50.872;5.306;2024-01-16T06:59:56;23.02;;;6.18;;
63434;SDS011;68814;50.872;5.306;2024-01-16T07:02:23;26.17;;;6.53;;
63434;SDS011;68814;50.872;5.306;2024-01-16T07:04:50;21.13;;;5.85;;
63434;SDS011;68814;50.872;5.306;2024-01-16T07:07:16;13.50;;;5.20;;
63434;SDS011;68814;50.872;5.306;2024-01-16T07:09:41;18.13;;;6.13;;
63434;SDS011;68814;50.872;5.306;2024-01-16T07:12:07;20.48;;;5.63;;
63434;SDS011;68814;50.872;5.306;2024-01-16T07:14:33;17.02;;;5.35;;
63434;SDS011;68814;50.872;5.306;2024-01-16T07:17:01;26.10;;;7.35;;
63434;SDS011;68814;50.872;5.306;2024-01-16T07:19:27;17.67;;;5.85;;
63434;SDS011;68814;50.872;5.306;2024-01-16T07:21:53;15.60;;;5.40;;
63434;SDS011;68814;50.872;5.306;2024-01-16T07:24:19;16.48;;;5.18;;
63434;SDS011;68814;50.872;5.306;2024-01-16T07:26:44;18.45;;;6.32;;
63434;SDS011;68814;50.872;5.306;2024-01-16T07:29:11;21.33;;;6.53;;
63434;SDS011;68814;50.872;5.306;2024-01-16T07:31:37;18.33;;;5.80;;
63434;SDS011;68814;50.872;5.306;2024-01-16T07:34:03;17.27;;;5.97;;
63434;SDS011;68814;50.872;5.306;2024-01-16T07:36:29;23.10;;;6.88;;
63434;SDS011;68814;50.872;5.306;2024-01-16T07:38:56;17.77;;;5.57;;
63434;SDS011;68814;50.872;5.306;2024-01-16T07:41:22;16.00;;;5.00;;
63434;SDS011;68814;50.872;5.306;2024-01-16T07:43:48;20.42;;;4.97;;
63434;SDS011;68814;50.872;5.306;2024-01-16T07:46:14;14.10;;;5.28;;
63434;SDS011;68814;50.872;5.306;2024-01-16T07:48:41;21.13;;;6.38;;
63434;SDS011;68814;50.872;5.306;2024-01-16T07:51:07;14.25;;;5.63;;
63434;SDS011;68814;50.872;5.306;2024-01-16T07:53:33;14.07;;;5.15;;
63434;SDS011;68814;50.872;5.306;2024-01-16T07:55:58;20.33;;;6.65;;
63434;SDS011;68814;50.872;5.306;2024-01-16T07:58:24;14.75;;;5.80;;
63434;SDS011;68814;50.872;5.306;2024-01-16T08:00:50;18.23;;;6.65;;
63434;SDS011;68814;50.872;5.306;2024-01-16T08:03:16;28.70;;;8.15;;
63434;SDS011;68814;50.872;5.306;2024-01-16T08:05:43;16.55;;;5.47;;
63434;SDS011;68814;50.872;5.306;2024-01-16T08:08:08;25.75;;;5.90;;
63434;SDS011;68814;50.872;5.306;2024-01-16T08:10:34;19.90;;;5.80;;
63434;SDS011;68814;50.872;5.306;2024-01-16T08:13:02;26.85;;;6.70;;
63434;SDS011;68814;50.872;5.306;2024-01-16T08:15:28;26.05;;;6.68;;
63434;SDS011;68814;50.872;5.306;2024-01-16T08:17:53;22.65;;;6.10;;
63434;SDS011;68814;50.872;5.306;2024-01-16T08:20:19;22.77;;;6.63;;
63434;SDS011;68814;50.872;5.306;2024-01-16T08:22:45;22.77;;;6.53;;
63434;SDS011;68814;50.872;5.306;2024-01-16T08:25:11;15.85;;;5.70;;
63434;SDS011;68814;50.872;5.306;2024-01-16T08:27:36;16.75;;;5.57;;
63434;SDS011;68814;50.872;5.306;2024-01-16T08:30:03;20.95;;;6.15;;
63434;SDS011;68814;50.872;5.306;2024-01-16T08:32:30;20.55;;;6.78;;
63434;SDS011;68814;50.872;5.306;2024-01-16T08:34:56;21.42;;;6.60;;
63434;SDS011;68814;50.872;5.306;2024-01-16T08:37:22;22.85;;;5.88;;
63434;SDS011;68814;50.872;5.306;2024-01-16T08:39:48;16.70;;;5.05;;
63434;SDS011;68814;50.872;5.306;2024-01-16T08:42:15;19.20;;;5.43;;
63434;SDS011;68814;50.872;5.306;2024-01-16T08:44:42;25.42;;;6.22;;
63434;SDS011;68814;50.872;5.306;2024-01-16T08:47:08;25.75;;;6.10;;
63434;SDS011;68814;50.872;5.306;2024-01-16T08:49:34;17.40;;;5.32;;
63434;SDS011;68814;50.872;5.306;2024-01-16T08:52:01;16.73;;;6.10;;
63434;SDS011;68814;50.872;5.306;2024-01-16T08:54:27;18.33;;;5.68;;
63434;SDS011;68814;50.872;5.306;2024-01-16T08:56:53;14.93;;;5.60;;
63434;SDS011;68814;50.872;5.306;2024-01-16T08:59:19;19.20;;;6.28;;
63434;SDS011;68814;50.872;5.306;2024-01-16T09:01:45;16.27;;;6.10;;
63434;SDS011;68814;50.872;5.306;2024-01-16T09:04:13;15.30;;;5.72;;
63434;SDS011;68814;50.872;5.306;2024-01-16T09:06:40;23.55;;;5.82;;
63434;SDS011;68814;50.872;5.306;2024-01-16T09:09:05;16.08;;;5.82;;
63434;SDS011;68814;50.872;5.306;2024-01-16T09:11:32;18.20;;;5.28;;
63434;SDS011;68814;50.872;5.306;2024-01-16T09:13:58;21.17;;;6.22;;
63434;SDS011;68814;50.872;5.306;2024-01-16T09:16:24;14.80;;;5.60;;
63434;SDS011;68814;50.872;5.306;2024-01-16T09:18:50;13.15;;;5.93;;
63434;SDS011;68814;50.872;5.306;2024-01-16T09:21:16;15.75;;;5.10;;
63434;SDS011;68814;50.872;5.306;2024-01-16T09:23:42;12.55;;;5.40;;
63434;SDS011;68814;50.872;5.306;2024-01-16T09:26:09;16.52;;;5.45;;
63434;SDS011;68814;50.872;5.306;2024-01-16T09:28:35;13.68;;;5.75;;
63434;SDS011;68814;50.872;5.306;2024-01-16T09:31:01;16.75;;;5.47;;
63434;SDS011;68814;50.872;5.306;2024-01-16T09:33:27;13.70;;;5.35;;
63434;SDS011;68814;50.872;5.306;2024-01-16T09:35:53;14.20;;;5.00;;
63434;SDS011;68814;50.872;5.306;2024-01-16T09:38:19;13.55;;;5.53;;
63434;SDS011;68814;50.872;5.306;2024-01-16T09:40:45;13.43;;;5.70;;
63434;SDS011;68814;50.872;5.306;2024-01-16T09:43:12;13.77;;;5.03;;
63434;SDS011;68814;50.872;5.306;2024-01-16T09:45:39;13.68;;;5.00;;
63434;SDS011;68814;50.872;5.306;2024-01-16T09:48:05;18.85;;;5.50;;
63434;SDS011;68814;50.872;5.306;2024-01-16T09:50:33;18.92;;;5.90;;
63434;SDS011;68814;50.872;5.306;2024-01-16T09:52:58;12.73;;;5.03;;
63434;SDS011;68814;50.872;5.306;2024-01-16T09:55:24;12.73;;;5.72;;
63434;SDS011;68814;50.872;5.306;2024-01-16T09:57:54;9.63;;;5.13;;
63434;SDS011;68814;50.872;5.306;2024-01-16T10:00:21;13.90;;;6.35;;
63434;SDS011;68814;50.872;5.306;2024-01-16T10:02:49;15.23;;;5.80;;
63434;SDS011;68814;50.872;5.306;2024-01-16T10:05:15;12.88;;;6.07;;
63434;SDS011;68814;50.872;5.306;2024-01-16T10:07:43;13.77;;;5.78;;
63434;SDS011;68814;50.872;5.306;2024-01-16T10:10:10;12.98;;;5.20;;
63434;SDS011;68814;50.872;5.306;2024-01-16T10:12:40;17.60;;;6.25;;
63434;SDS011;68814;50.872;5.306;2024-01-16T10:15:09;12.95;;;5.20;;
63434;SDS011;68814;50.872;5.306;2024-01-16T10:17:40;17.90;;;6.90;;
63434;SDS011;68814;50.872;5.306;2024-01-16T10:20:10;14.85;;;5.18;;
63434;SDS011;68814;50.872;5.306;2024-01-16T10:30:28;16.85;;;5.18;;
63434;SDS011;68814;50.872;5.306;2024-01-16T10:58:43;12.00;;;4.78;;
63434;SDS011;68814;50.872;5.306;2024-01-16T11:01:10;16.20;;;5.45;;
63434;SDS011;68814;50.872;5.306;2024-01-16T11:06:14;16.23;;;5.17;;
63434;SDS011;68814;50.872;5.306;2024-01-16T11:08:49;11.20;;;5.03;;
63434;SDS011;68814;50.872;5.306;2024-01-16T11:13:51;13.88;;;5.45;;
63434;SDS011;68814;50.872;5.306;2024-01-16T11:16:18;14.60;;;5.43;;
63434;SDS011;68814;50.872;5.306;2024-01-16T11:18:45;15.23;;;5.50;;
63434;SDS011;68814;50.872;5.306;2024-01-16T11:21:11;11.20;;;5.05;;
63434;SDS011;68814;50.872;5.306;2024-01-16T11:23:39;13.80;;;5.15;;
63434;SDS011;68814;50.872;5.306;2024-01-16T11:41:53;11.32;;;4.38;;
63434;SDS011;68814;50.872;5.306;2024-01-16T11:44:36;13.02;;;5.30;;
63434;SDS011;68814;50.872;5.306;2024-01-16T11:47:03;18.20;;;6.30;;
63434;SDS011;68814;50.872;5.306;2024-01-16T11:49:30;15.07;;;4.97;;
63434;SDS011;68814;50.872;5.306;2024-01-16T11:51:57;15.73;;;5.38;;
63434;SDS011;68814;50.872;5.306;2024-01-16T11:54:23;11.55;;;4.55;;
63434;SDS011;68814;50.872;5.306;2024-01-16T12:04:58;16.42;;;6.32;;
